Terminal Aerodrome Forecast
Issued by NWS Wakefield, VA

Home | Current Version | Previous Version | Text Only | Print | Product List | Glossary On
Versions: 1 2 3 4 5 6 7 8 9 10 11 12 13 14 15 16 17 18 19 20 21
000
FTUS41 KAKQ 022340
TAFECG
TAF
KECG 022340Z 0300/0324 03008KT P6SM VCTS SCT060CB BKN100
     FM030300 14005KT P6SM SCT100
     FM030600 20004KT P6SM SKC
     FM031400 20008KT P6SM SCT250=

USA.gov is the U.S. government's official web portal to all federal, state and local government web resources and services.